sensor_id;sensor_type;location;lat;lon;timestamp;temperature;humidity
79049;DHT22;68680;50.764;6.120;2023-04-06T00:00:43;2.60;66.50
79049;DHT22;68680;50.764;6.120;2023-04-06T00:03:08;2.50;66.10
79049;DHT22;68680;50.764;6.120;2023-04-06T00:05:34;2.50;65.80
79049;DHT22;68680;50.764;6.120;2023-04-06T00:08:01;2.60;65.80
79049;DHT22;68680;50.764;6.120;2023-04-06T00:10:26;2.60;65.60
79049;DHT22;68680;50.764;6.120;2023-04-06T00:12:52;2.60;65.00
79049;DHT22;68680;50.764;6.120;2023-04-06T00:15:18;2.60;65.30
79049;DHT22;68680;50.764;6.120;2023-04-06T00:17:44;2.60;65.40
79049;DHT22;68680;50.764;6.120;2023-04-06T00:20:10;2.60;65.00
79049;DHT22;68680;50.764;6.120;2023-04-06T00:22:36;2.60;65.30
79049;DHT22;68680;50.764;6.120;2023-04-06T00:25:03;2.50;65.70
79049;DHT22;68680;50.764;6.120;2023-04-06T00:27:29;2.50;66.70
79049;DHT22;68680;50.764;6.120;2023-04-06T00:29:54;2.40;67.80
79049;DHT22;68680;50.764;6.120;2023-04-06T00:32:20;2.40;69.00
79049;DHT22;68680;50.764;6.120;2023-04-06T00:34:46;2.30;69.10
79049;DHT22;68680;50.764;6.120;2023-04-06T00:37:11;2.30;68.60
79049;DHT22;68680;50.764;6.120;2023-04-06T00:39:37;2.30;69.10
79049;DHT22;68680;50.764;6.120;2023-04-06T00:42:06;2.30;69.40
79049;DHT22;68680;50.764;6.120;2023-04-06T00:44:35;2.20;69.30
79049;DHT22;68680;50.764;6.120;2023-04-06T00:47:01;2.20;68.20
79049;DHT22;68680;50.764;6.120;2023-04-06T00:49:26;2.20;68.60
79049;DHT22;68680;50.764;6.120;2023-04-06T00:51:52;2.10;68.40
79049;DHT22;68680;50.764;6.120;2023-04-06T00:54:18;2.10;68.40
79049;DHT22;68680;50.764;6.120;2023-04-06T00:56:43;2.10;68.60
79049;DHT22;68680;50.764;6.120;2023-04-06T00:59:11;2.10;69.60
79049;DHT22;68680;50.764;6.120;2023-04-06T01:01:37;2.00;70.50
79049;DHT22;68680;50.764;6.120;2023-04-06T01:04:02;2.00;70.70
79049;DHT22;68680;50.764;6.120;2023-04-06T01:06:28;2.00;70.30
79049;DHT22;68680;50.764;6.120;2023-04-06T01:08:54;1.90;70.70
79049;DHT22;68680;50.764;6.120;2023-04-06T01:11:20;2.00;69.00
79049;DHT22;68680;50.764;6.120;2023-04-06T01:13:45;2.00;68.20
79049;DHT22;68680;50.764;6.120;2023-04-06T01:16:12;2.00;68.10
79049;DHT22;68680;50.764;6.120;2023-04-06T01:18:38;2.10;68.00
79049;DHT22;68680;50.764;6.120;2023-04-06T01:21:04;2.10;68.60
79049;DHT22;68680;50.764;6.120;2023-04-06T01:23:31;2.10;68.00
79049;DHT22;68680;50.764;6.120;2023-04-06T01:25:56;2.10;67.80
79049;DHT22;68680;50.764;6.120;2023-04-06T01:28:22;2.10;69.00
79049;DHT22;68680;50.764;6.120;2023-04-06T01:30:48;2.10;68.80
79049;DHT22;68680;50.764;6.120;2023-04-06T01:33:13;2.00;69.00
79049;DHT22;68680;50.764;6.120;2023-04-06T01:35:39;2.10;69.80
79049;DHT22;68680;50.764;6.120;2023-04-06T01:38:04;2.00;68.70
79049;DHT22;68680;50.764;6.120;2023-04-06T01:40:31;2.00;69.00
79049;DHT22;68680;50.764;6.120;2023-04-06T01:42:57;2.00;69.70
79049;DHT22;68680;50.764;6.120;2023-04-06T01:45:22;1.90;69.90
79049;DHT22;68680;50.764;6.120;2023-04-06T01:47:48;1.80;70.20
79049;DHT22;68680;50.764;6.120;2023-04-06T01:50:14;1.70;71.10
79049;DHT22;68680;50.764;6.120;2023-04-06T01:52:39;1.70;70.30
79049;DHT22;68680;50.764;6.120;2023-04-06T01:55:06;1.70;70.40
79049;DHT22;68680;50.764;6.120;2023-04-06T01:57:33;1.70;69.90
79049;DHT22;68680;50.764;6.120;2023-04-06T01:59:59;1.70;69.80
79049;DHT22;68680;50.764;6.120;2023-04-06T02:02:24;1.70;70.70
79049;DHT22;68680;50.764;6.120;2023-04-06T02:04:50;1.70;70.50
79049;DHT22;68680;50.764;6.120;2023-04-06T02:07:16;1.60;71.20
79049;DHT22;68680;50.764;6.120;2023-04-06T02:09:41;1.60;71.80
79049;DHT22;68680;50.764;6.120;2023-04-06T02:12:07;1.50;71.80
79049;DHT22;68680;50.764;6.120;2023-04-06T02:14:34;1.50;72.60
79049;DHT22;68680;50.764;6.120;2023-04-06T02:16:59;1.40;74.50
79049;DHT22;68680;50.764;6.120;2023-04-06T02:19:25;1.40;73.90
79049;DHT22;68680;50.764;6.120;2023-04-06T02:21:50;1.40;73.40
79049;DHT22;68680;50.764;6.120;2023-04-06T02:24:16;1.30;73.40
79049;DHT22;68680;50.764;6.120;2023-04-06T02:26:42;1.30;73.30
79049;DHT22;68680;50.764;6.120;2023-04-06T02:29:07;1.30;73.60
79049;DHT22;68680;50.764;6.120;2023-04-06T02:31:34;1.30;73.40
79049;DHT22;68680;50.764;6.120;2023-04-06T02:34:00;1.30;72.10
79049;DHT22;68680;50.764;6.120;2023-04-06T02:36:25;1.40;71.80
79049;DHT22;68680;50.764;6.120;2023-04-06T02:38:51;1.40;70.70
79049;DHT22;68680;50.764;6.120;2023-04-06T02:41:17;1.40;70.70
79049;DHT22;68680;50.764;6.120;2023-04-06T02:43:42;1.50;70.90
79049;DHT22;68680;50.764;6.120;2023-04-06T02:46:08;1.50;70.40
79049;DHT22;68680;50.764;6.120;2023-04-06T02:48:35;1.60;71.50
79049;DHT22;68680;50.764;6.120;2023-04-06T02:51:00;1.50;71.20
79049;DHT22;68680;50.764;6.120;2023-04-06T02:53:26;1.50;71.70
79049;DHT22;68680;50.764;6.120;2023-04-06T02:55:52;1.50;72.30
79049;DHT22;68680;50.764;6.120;2023-04-06T02:58:17;1.40;72.40
79049;DHT22;68680;50.764;6.120;2023-04-06T03:00:43;1.40;71.20
79049;DHT22;68680;50.764;6.120;2023-04-06T03:03:08;1.50;69.80
79049;DHT22;68680;50.764;6.120;2023-04-06T03:05:35;1.60;69.00
79049;DHT22;68680;50.764;6.120;2023-04-06T03:08:01;1.60;69.00
79049;DHT22;68680;50.764;6.120;2023-04-06T03:10:26;1.70;69.60
79049;DHT22;68680;50.764;6.120;2023-04-06T03:12:52;1.70;69.00
79049;DHT22;68680;50.764;6.120;2023-04-06T03:15:18;1.80;68.30
79049;DHT22;68680;50.764;6.120;2023-04-06T03:17:43;1.80;69.10
79049;DHT22;68680;50.764;6.120;2023-04-06T03:20:09;1.80;68.80
79049;DHT22;68680;50.764;6.120;2023-04-06T03:22:36;1.90;69.60
79049;DHT22;68680;50.764;6.120;2023-04-06T03:25:02;1.80;69.90
79049;DHT22;68680;50.764;6.120;2023-04-06T03:27:28;1.90;69.30
79049;DHT22;68680;50.764;6.120;2023-04-06T03:29:53;1.90;68.50
79049;DHT22;68680;50.764;6.120;2023-04-06T03:32:19;2.00;68.50
79049;DHT22;68680;50.764;6.120;2023-04-06T03:34:45;2.00;68.00
79049;DHT22;68680;50.764;6.120;2023-04-06T03:37:10;2.00;68.10
79049;DHT22;68680;50.764;6.120;2023-04-06T03:39:37;2.00;68.20
79049;DHT22;68680;50.764;6.120;2023-04-06T03:42:03;2.00;69.80
79049;DHT22;68680;50.764;6.120;2023-04-06T03:44:29;2.00;70.10
79049;DHT22;68680;50.764;6.120;2023-04-06T03:46:54;2.00;70.80
79049;DHT22;68680;50.764;6.120;2023-04-06T03:49:20;1.90;71.70
79049;DHT22;68680;50.764;6.120;2023-04-06T03:51:45;1.90;71.60
79049;DHT22;68680;50.764;6.120;2023-04-06T03:54:11;1.90;71.30
79049;DHT22;68680;50.764;6.120;2023-04-06T03:56:38;1.90;70.40
79049;DHT22;68680;50.764;6.120;2023-04-06T03:59:04;2.00;71.10
79049;DHT22;68680;50.764;6.120;2023-04-06T04:01:29;2.00;70.40
79049;DHT22;68680;50.764;6.120;2023-04-06T04:03:55;2.10;69.70
79049;DHT22;68680;50.764;6.120;2023-04-06T04:06:21;2.10;69.60
79049;DHT22;68680;50.764;6.120;2023-04-06T04:08:46;2.10;69.10
79049;DHT22;68680;50.764;6.120;2023-04-06T04:11:12;2.20;69.40
79049;DHT22;68680;50.764;6.120;2023-04-06T04:13:39;2.20;70.60
79049;DHT22;68680;50.764;6.120;2023-04-06T04:16:05;2.20;70.60
79049;DHT22;68680;50.764;6.120;2023-04-06T04:18:30;2.20;70.80
79049;DHT22;68680;50.764;6.120;2023-04-06T04:20:56;2.20;70.50
79049;DHT22;68680;50.764;6.120;2023-04-06T04:23:22;2.20;70.10
79049;DHT22;68680;50.764;6.120;2023-04-06T04:25:48;2.30;70.10
79049;DHT22;68680;50.764;6.120;2023-04-06T04:28:13;2.40;70.00
79049;DHT22;68680;50.764;6.120;2023-04-06T04:30:40;2.40;69.20
79049;DHT22;68680;50.764;6.120;2023-04-06T04:33:06;2.50;69.10
79049;DHT22;68680;50.764;6.120;2023-04-06T04:35:31;2.60;69.90
79049;DHT22;68680;50.764;6.120;2023-04-06T04:37:57;2.70;68.40
79049;DHT22;68680;50.764;6.120;2023-04-06T04:40:23;2.70;67.20
79049;DHT22;68680;50.764;6.120;2023-04-06T04:42:48;2.80;67.60
79049;DHT22;68680;50.764;6.120;2023-04-06T04:45:17;2.90;66.70
79049;DHT22;68680;50.764;6.120;2023-04-06T04:47:44;2.90;67.60
79049;DHT22;68680;50.764;6.120;2023-04-06T04:50:09;2.90;68.20
79049;DHT22;68680;50.764;6.120;2023-04-06T04:52:36;3.00;67.90
79049;DHT22;68680;50.764;6.120;2023-04-06T04:55:02;3.00;68.50
79049;DHT22;68680;50.764;6.120;2023-04-06T04:57:28;3.00;68.30
79049;DHT22;68680;50.764;6.120;2023-04-06T04:59:54;2.90;70.70
79049;DHT22;68680;50.764;6.120;2023-04-06T05:02:20;2.80;70.90
79049;DHT22;68680;50.764;6.120;2023-04-06T05:04:47;2.90;69.70
79049;DHT22;68680;50.764;6.120;2023-04-06T05:07:12;3.00;70.90
79049;DHT22;68680;50.764;6.120;2023-04-06T05:09:38;3.00;70.40
79049;DHT22;68680;50.764;6.120;2023-04-06T05:12:03;3.00;71.70
79049;DHT22;68680;50.764;6.120;2023-04-06T05:14:29;3.00;72.90
79049;DHT22;68680;50.764;6.120;2023-04-06T05:16:55;3.00;73.00
79049;DHT22;68680;50.764;6.120;2023-04-06T05:19:20;3.00;72.80
79049;DHT22;68680;50.764;6.120;2023-04-06T05:21:47;3.00;73.00
79049;DHT22;68680;50.764;6.120;2023-04-06T05:24:13;3.00;73.90
79049;DHT22;68680;50.764;6.120;2023-04-06T05:26:39;3.10;74.20
79049;DHT22;68680;50.764;6.120;2023-04-06T05:29:05;3.10;70.40
79049;DHT22;68680;50.764;6.120;2023-04-06T05:31:30;3.20;72.50
79049;DHT22;68680;50.764;6.120;2023-04-06T05:33:56;3.20;73.00
79049;DHT22;68680;50.764;6.120;2023-04-06T05:36:22;3.30;71.90
79049;DHT22;68680;50.764;6.120;2023-04-06T05:38:49;3.40;70.40
79049;DHT22;68680;50.764;6.120;2023-04-06T05:41:15;3.50;70.20
79049;DHT22;68680;50.764;6.120;2023-04-06T05:43:40;3.60;69.00
79049;DHT22;68680;50.764;6.120;2023-04-06T05:46:06;3.70;66.30
79049;DHT22;68680;50.764;6.120;2023-04-06T05:48:31;4.00;64.70
79049;DHT22;68680;50.764;6.120;2023-04-06T05:50:57;4.10;64.90
79049;DHT22;68680;50.764;6.120;2023-04-06T05:53:23;4.10;65.60
79049;DHT22;68680;50.764;6.120;2023-04-06T05:55:50;4.20;66.70
79049;DHT22;68680;50.764;6.120;2023-04-06T05:58:15;4.30;67.40
79049;DHT22;68680;50.764;6.120;2023-04-06T06:00:41;4.30;66.50
79049;DHT22;68680;50.764;6.120;2023-04-06T06:03:07;4.50;63.90
79049;DHT22;68680;50.764;6.120;2023-04-06T06:05:33;4.60;63.10
79049;DHT22;68680;50.764;6.120;2023-04-06T06:07:59;4.70;63.40
79049;DHT22;68680;50.764;6.120;2023-04-06T06:10:24;4.80;63.30
79049;DHT22;68680;50.764;6.120;2023-04-06T06:12:51;4.90;63.10
79049;DHT22;68680;50.764;6.120;2023-04-06T06:15:17;5.00;62.40
79049;DHT22;68680;50.764;6.120;2023-04-06T06:17:42;5.10;62.50
79049;DHT22;68680;50.764;6.120;2023-04-06T06:20:08;5.20;61.80
79049;DHT22;68680;50.764;6.120;2023-04-06T06:22:34;5.40;61.00
79049;DHT22;68680;50.764;6.120;2023-04-06T06:25:00;5.50;61.30
79049;DHT22;68680;50.764;6.120;2023-04-06T06:27:26;5.70;60.50
79049;DHT22;68680;50.764;6.120;2023-04-06T06:29:53;5.90;60.40
79049;DHT22;68680;50.764;6.120;2023-04-06T06:32:18;6.00;60.20
79049;DHT22;68680;50.764;6.120;2023-04-06T06:34:44;6.20;59.80
79049;DHT22;68680;50.764;6.120;2023-04-06T06:37:09;6.30;59.40
79049;DHT22;68680;50.764;6.120;2023-04-06T06:39:35;6.50;58.10
79049;DHT22;68680;50.764;6.120;2023-04-06T06:42:01;6.70;57.70
79049;DHT22;68680;50.764;6.120;2023-04-06T06:44:26;6.80;57.20
79049;DHT22;68680;50.764;6.120;2023-04-06T06:46:53;6.90;56.30
79049;DHT22;68680;50.764;6.120;2023-04-06T06:49:19;7.00;56.40
79049;DHT22;68680;50.764;6.120;2023-04-06T06:51:45;7.10;56.60
79049;DHT22;68680;50.764;6.120;2023-04-06T06:54:11;7.20;55.50
79049;DHT22;68680;50.764;6.120;2023-04-06T06:56:36;7.20;56.70
79049;DHT22;68680;50.764;6.120;2023-04-06T06:59:02;7.20;56.50
79049;DHT22;68680;50.764;6.120;2023-04-06T07:01:27;7.30;56.70
79049;DHT22;68680;50.764;6.120;2023-04-06T07:03:54;7.40;56.00
79049;DHT22;68680;50.764;6.120;2023-04-06T07:06:20;7.50;55.80
79049;DHT22;68680;50.764;6.120;2023-04-06T07:08:46;7.60;56.00
79049;DHT22;68680;50.764;6.120;2023-04-06T07:11:11;7.60;55.60
79049;DHT22;68680;50.764;6.120;2023-04-06T07:13:37;7.70;56.20
79049;DHT22;68680;50.764;6.120;2023-04-06T07:16:03;7.90;55.20
79049;DHT22;68680;50.764;6.120;2023-04-06T07:18:29;7.90;55.30
79049;DHT22;68680;50.764;6.120;2023-04-06T07:20:55;8.00;55.30
79049;DHT22;68680;50.764;6.120;2023-04-06T07:23:21;8.00;55.60
79049;DHT22;68680;50.764;6.120;2023-04-06T07:25:47;8.20;55.40
79049;DHT22;68680;50.764;6.120;2023-04-06T07:28:12;8.30;54.50
79049;DHT22;68680;50.764;6.120;2023-04-06T07:30:38;8.30;54.40
79049;DHT22;68680;50.764;6.120;2023-04-06T07:33:04;8.30;54.60
79049;DHT22;68680;50.764;6.120;2023-04-06T07:35:30;8.40;53.90
79049;DHT22;68680;50.764;6.120;2023-04-06T07:37:57;8.40;53.90
79049;DHT22;68680;50.764;6.120;2023-04-06T07:40:23;8.50;54.20
79049;DHT22;68680;50.764;6.120;2023-04-06T07:42:48;8.50;54.40
79049;DHT22;68680;50.764;6.120;2023-04-06T07:45:14;8.50;54.40
79049;DHT22;68680;50.764;6.120;2023-04-06T07:47:40;8.50;54.60
79049;DHT22;68680;50.764;6.120;2023-04-06T07:50:06;8.70;54.80
79049;DHT22;68680;50.764;6.120;2023-04-06T07:52:32;8.80;54.60
79049;DHT22;68680;50.764;6.120;2023-04-06T07:54:59;8.90;54.10
79049;DHT22;68680;50.764;6.120;2023-04-06T07:57:24;9.00;53.60
79049;DHT22;68680;50.764;6.120;2023-04-06T07:59:50;9.10;54.30
79049;DHT22;68680;50.764;6.120;2023-04-06T08:02:16;9.20;54.00
79049;DHT22;68680;50.764;6.120;2023-04-06T08:04:42;9.30;53.80
79049;DHT22;68680;50.764;6.120;2023-04-06T08:07:07;9.30;53.40
79049;DHT22;68680;50.764;6.120;2023-04-06T08:09:33;9.30;52.60
79049;DHT22;68680;50.764;6.120;2023-04-06T08:12:00;9.20;52.70
79049;DHT22;68680;50.764;6.120;2023-04-06T08:14:26;9.30;53.10
79049;DHT22;68680;50.764;6.120;2023-04-06T08:16:51;9.30;53.00
79049;DHT22;68680;50.764;6.120;2023-04-06T08:19:17;9.40;51.60
79049;DHT22;68680;50.764;6.120;2023-04-06T08:21:43;9.50;52.00
79049;DHT22;68680;50.764;6.120;2023-04-06T08:24:08;9.50;52.20
79049;DHT22;68680;50.764;6.120;2023-04-06T08:26:34;9.60;52.00
79049;DHT22;68680;50.764;6.120;2023-04-06T08:29:01;9.70;51.60
79049;DHT22;68680;50.764;6.120;2023-04-06T08:31:26;9.80;49.90
79049;DHT22;68680;50.764;6.120;2023-04-06T08:33:52;9.80;50.80
79049;DHT22;68680;50.764;6.120;2023-04-06T08:36:18;9.90;51.50
79049;DHT22;68680;50.764;6.120;2023-04-06T08:38:43;10.00;50.40
79049;DHT22;68680;50.764;6.120;2023-04-06T08:41:09;10.10;50.00
79049;DHT22;68680;50.764;6.120;2023-04-06T08:43:37;10.20;48.70
79049;DHT22;68680;50.764;6.120;2023-04-06T08:46:09;10.10;48.60
79049;DHT22;68680;50.764;6.120;2023-04-06T08:48:35;10.20;49.20
79049;DHT22;68680;50.764;6.120;2023-04-06T08:51:01;10.20;48.80
79049;DHT22;68680;50.764;6.120;2023-04-06T08:53:28;10.10;49.00
79049;DHT22;68680;50.764;6.120;2023-04-06T08:55:54;10.20;50.70
79049;DHT22;68680;50.764;6.120;2023-04-06T08:58:22;10.20;48.60
79049;DHT22;68680;50.764;6.120;2023-04-06T09:00:49;10.20;48.80
79049;DHT22;68680;50.764;6.120;2023-04-06T09:03:17;10.20;49.20
79049;DHT22;68680;50.764;6.120;2023-04-06T09:05:43;10.20;49.20
79049;DHT22;68680;50.764;6.120;2023-04-06T09:08:11;10.30;48.50
79049;DHT22;68680;50.764;6.120;2023-04-06T09:10:38;10.20;49.10
79049;DHT22;68680;50.764;6.120;2023-04-06T09:13:05;10.20;49.40
79049;DHT22;68680;50.764;6.120;2023-04-06T09:15:31;10.20;49.20
79049;DHT22;68680;50.764;6.120;2023-04-06T09:17:57;10.10;49.60
79049;DHT22;68680;50.764;6.120;2023-04-06T09:20:24;10.10;49.10
79049;DHT22;68680;50.764;6.120;2023-04-06T09:22:51;10.00;49.50
79049;DHT22;68680;50.764;6.120;2023-04-06T09:25:18;10.10;50.30
79049;DHT22;68680;50.764;6.120;2023-04-06T09:27:44;10.10;49.70
79049;DHT22;68680;50.764;6.120;2023-04-06T09:30:11;10.30;50.60
79049;DHT22;68680;50.764;6.120;2023-04-06T09:32:47;10.30;49.80
79049;DHT22;68680;50.764;6.120;2023-04-06T09:35:14;10.30;49.80
79049;DHT22;68680;50.764;6.120;2023-04-06T09:37:41;10.30;49.20
79049;DHT22;68680;50.764;6.120;2023-04-06T09:40:08;10.40;51.90
79049;DHT22;68680;50.764;6.120;2023-04-06T09:42:34;10.20;50.60
79049;DHT22;68680;50.764;6.120;2023-04-06T09:45:00;10.10;50.50
79049;DHT22;68680;50.764;6.120;2023-04-06T09:47:25;10.10;52.40
79049;DHT22;68680;50.764;6.120;2023-04-06T09:49:53;10.20;51.30
79049;DHT22;68680;50.764;6.120;2023-04-06T09:52:21;10.30;50.50
79049;DHT22;68680;50.764;6.120;2023-04-06T09:54:50;10.30;50.20
79049;DHT22;68680;50.764;6.120;2023-04-06T09:57:19;10.40;50.00
79049;DHT22;68680;50.764;6.120;2023-04-06T09:59:50;10.50;51.50
79049;DHT22;68680;50.764;6.120;2023-04-06T10:02:29;10.60;50.20
79049;DHT22;68680;50.764;6.120;2023-04-06T10:05:05;10.60;50.30
79049;DHT22;68680;50.764;6.120;2023-04-06T10:07:34;10.70;50.30
79049;DHT22;68680;50.764;6.120;2023-04-06T10:10:03;10.70;50.70
79049;DHT22;68680;50.764;6.120;2023-04-06T10:12:29;10.70;50.40
79049;DHT22;68680;50.764;6.120;2023-04-06T10:14:55;10.70;50.40
79049;DHT22;68680;50.764;6.120;2023-04-06T10:17:21;10.90;52.00
79049;DHT22;68680;50.764;6.120;2023-04-06T10:19:52;10.90;52.00
79049;DHT22;68680;50.764;6.120;2023-04-06T10:22:22;10.90;51.40
79049;DHT22;68680;50.764;6.120;2023-04-06T10:24:51;11.00;51.20
79049;DHT22;68680;50.764;6.120;2023-04-06T10:27:26;10.90;52.00
79049;DHT22;68680;50.764;6.120;2023-04-06T10:29:52;10.90;51.30
79049;DHT22;68680;50.764;6.120;2023-04-06T10:32:18;11.00;52.50
79049;DHT22;68680;50.764;6.120;2023-04-06T10:34:44;11.00;52.20
79049;DHT22;68680;50.764;6.120;2023-04-06T10:37:13;10.90;52.00
79049;DHT22;68680;50.764;6.120;2023-04-06T10:39:45;10.80;52.70
79049;DHT22;68680;50.764;6.120;2023-04-06T10:42:11;10.80;51.50
79049;DHT22;68680;50.764;6.120;2023-04-06T10:44:41;10.70;52.00
79049;DHT22;68680;50.764;6.120;2023-04-06T10:47:15;10.70;52.70
79049;DHT22;68680;50.764;6.120;2023-04-06T10:49:41;10.70;52.50
79049;DHT22;68680;50.764;6.120;2023-04-06T10:52:07;10.80;52.90
79049;DHT22;68680;50.764;6.120;2023-04-06T10:54:32;10.80;51.70
79049;DHT22;68680;50.764;6.120;2023-04-06T10:56:58;10.80;52.30
79049;DHT22;68680;50.764;6.120;2023-04-06T10:59:24;10.90;52.20
79049;DHT22;68680;50.764;6.120;2023-04-06T11:01:51;11.00;53.20
79049;DHT22;68680;50.764;6.120;2023-04-06T11:04:17;10.90;51.50
79049;DHT22;68680;50.764;6.120;2023-04-06T11:06:46;10.90;51.60
79049;DHT22;68680;50.764;6.120;2023-04-06T11:09:22;10.80;53.30
79049;DHT22;68680;50.764;6.120;2023-04-06T11:11:48;10.80;52.40
79049;DHT22;68680;50.764;6.120;2023-04-06T11:14:14;11.00;53.00
79049;DHT22;68680;50.764;6.120;2023-04-06T11:16:40;10.90;53.10
79049;DHT22;68680;50.764;6.120;2023-04-06T11:19:07;10.90;53.50
79049;DHT22;68680;50.764;6.120;2023-04-06T11:21:33;11.00;54.10
79049;DHT22;68680;50.764;6.120;2023-04-06T11:24:04;10.90;53.00
79049;DHT22;68680;50.764;6.120;2023-04-06T11:26:36;10.80;52.80
79049;DHT22;68680;50.764;6.120;2023-04-06T11:29:02;10.80;55.40
79049;DHT22;68680;50.764;6.120;2023-04-06T11:31:29;10.70;56.70
79049;DHT22;68680;50.764;6.120;2023-04-06T11:33:55;10.80;56.80
79049;DHT22;68680;50.764;6.120;2023-04-06T11:36:23;10.70;55.20
79049;DHT22;68680;50.764;6.120;2023-04-06T11:38:48;10.70;55.70
79049;DHT22;68680;50.764;6.120;2023-04-06T11:41:14;10.70;56.50
79049;DHT22;68680;50.764;6.120;2023-04-06T11:43:45;10.70;56.90
79049;DHT22;68680;50.764;6.120;2023-04-06T11:46:16;10.50;59.10
79049;DHT22;68680;50.764;6.120;2023-04-06T11:48:43;10.40;61.30
79049;DHT22;68680;50.764;6.120;2023-04-06T11:51:09;10.20;62.50
79049;DHT22;68680;50.764;6.120;2023-04-06T11:53:44;10.10;62.50
79049;DHT22;68680;50.764;6.120;2023-04-06T11:56:10;10.00;62.00
79049;DHT22;68680;50.764;6.120;2023-04-06T11:58:35;9.90;61.70
79049;DHT22;68680;50.764;6.120;2023-04-06T12:01:04;9.90;62.10
79049;DHT22;68680;50.764;6.120;2023-04-06T12:03:29;9.80;64.30
79049;DHT22;68680;50.764;6.120;2023-04-06T12:05:55;9.70;66.90
79049;DHT22;68680;50.764;6.120;2023-04-06T12:08:21;9.50;66.60
79049;DHT22;68680;50.764;6.120;2023-04-06T12:10:48;9.40;67.40
79049;DHT22;68680;50.764;6.120;2023-04-06T12:13:13;9.30;70.40
79049;DHT22;68680;50.764;6.120;2023-04-06T12:15:39;9.20;71.80
79049;DHT22;68680;50.764;6.120;2023-04-06T12:18:04;9.30;72.50
79049;DHT22;68680;50.764;6.120;2023-04-06T12:20:31;9.40;72.00
79049;DHT22;68680;50.764;6.120;2023-04-06T12:22:56;9.40;70.60
79049;DHT22;68680;50.764;6.120;2023-04-06T12:25:22;9.40;70.50
79049;DHT22;68680;50.764;6.120;2023-04-06T12:27:49;9.40;70.90
79049;DHT22;68680;50.764;6.120;2023-04-06T12:30:15;9.50;69.60
79049;DHT22;68680;50.764;6.120;2023-04-06T12:32:40;9.50;70.60
79049;DHT22;68680;50.764;6.120;2023-04-06T12:35:06;9.40;70.30
79049;DHT22;68680;50.764;6.120;2023-04-06T12:37:32;9.30;70.30
79049;DHT22;68680;50.764;6.120;2023-04-06T12:39:58;9.10;69.70
79049;DHT22;68680;50.764;6.120;2023-04-06T12:42:24;9.00;71.10
79049;DHT22;68680;50.764;6.120;2023-04-06T12:44:51;9.00;72.40
79049;DHT22;68680;50.764;6.120;2023-04-06T12:47:16;9.10;72.80
79049;DHT22;68680;50.764;6.120;2023-04-06T12:49:42;9.10;71.70
79049;DHT22;68680;50.764;6.120;2023-04-06T12:52:08;9.00;71.30
79049;DHT22;68680;50.764;6.120;2023-04-06T12:54:33;8.90;72.90
79049;DHT22;68680;50.764;6.120;2023-04-06T12:56:59;8.80;72.40
79049;DHT22;68680;50.764;6.120;2023-04-06T12:59:25;8.80;74.50
79049;DHT22;68680;50.764;6.120;2023-04-06T13:01:52;8.90;73.90
79049;DHT22;68680;50.764;6.120;2023-04-06T13:04:17;9.00;74.70
79049;DHT22;68680;50.764;6.120;2023-04-06T13:06:43;9.00;74.30
79049;DHT22;68680;50.764;6.120;2023-04-06T13:09:08;9.10;73.40
79049;DHT22;68680;50.764;6.120;2023-04-06T13:11:34;9.20;73.10
79049;DHT22;68680;50.764;6.120;2023-04-06T13:14:00;9.20;73.60
79049;DHT22;68680;50.764;6.120;2023-04-06T13:16:25;9.20;72.70
79049;DHT22;68680;50.764;6.120;2023-04-06T13:18:52;9.20;73.50
79049;DHT22;68680;50.764;6.120;2023-04-06T13:21:18;9.10;74.20
79049;DHT22;68680;50.764;6.120;2023-04-06T13:23:43;8.90;76.60
79049;DHT22;68680;50.764;6.120;2023-04-06T13:26:09;8.80;77.00
79049;DHT22;68680;50.764;6.120;2023-04-06T13:28:35;8.80;78.80
79049;DHT22;68680;50.764;6.120;2023-04-06T13:31:01;8.70;78.70
79049;DHT22;68680;50.764;6.120;2023-04-06T13:33:27;8.70;78.10
79049;DHT22;68680;50.764;6.120;2023-04-06T13:35:55;8.50;78.10
79049;DHT22;68680;50.764;6.120;2023-04-06T13:38:20;8.40;80.10
79049;DHT22;68680;50.764;6.120;2023-04-06T13:40:46;8.40;79.20
79049;DHT22;68680;50.764;6.120;2023-04-06T13:43:14;8.40;80.80
79049;DHT22;68680;50.764;6.120;2023-04-06T13:45:39;8.40;80.60
79049;DHT22;68680;50.764;6.120;2023-04-06T13:48:05;8.40;83.20
79049;DHT22;68680;50.764;6.120;2023-04-06T13:50:31;8.50;83.60
79049;DHT22;68680;50.764;6.120;2023-04-06T13:52:58;8.50;82.80
79049;DHT22;68680;50.764;6.120;2023-04-06T13:55:24;8.50;83.80
79049;DHT22;68680;50.764;6.120;2023-04-06T13:57:50;8.50;82.40
79049;DHT22;68680;50.764;6.120;2023-04-06T14:00:16;8.40;83.00
79049;DHT22;68680;50.764;6.120;2023-04-06T14:02:42;8.40;84.00
79049;DHT22;68680;50.764;6.120;2023-04-06T14:05:08;8.40;84.50
79049;DHT22;68680;50.764;6.120;2023-04-06T14:07:34;8.30;84.30
79049;DHT22;68680;50.764;6.120;2023-04-06T14:10:01;8.20;85.50
79049;DHT22;68680;50.764;6.120;2023-04-06T14:12:27;8.20;85.50
79049;DHT22;68680;50.764;6.120;2023-04-06T14:14:53;8.20;87.10
79049;DHT22;68680;50.764;6.120;2023-04-06T14:17:18;8.20;87.20
79049;DHT22;68680;50.764;6.120;2023-04-06T14:19:44;8.10;87.60
79049;DHT22;68680;50.764;6.120;2023-04-06T14:22:10;8.10;87.80
79049;DHT22;68680;50.764;6.120;2023-04-06T14:24:35;8.10;89.70
79049;DHT22;68680;50.764;6.120;2023-04-06T14:27:02;8.10;87.30
79049;DHT22;68680;50.764;6.120;2023-04-06T14:29:28;8.00;88.70
79049;DHT22;68680;50.764;6.120;2023-04-06T14:31:53;8.00;87.90
79049;DHT22;68680;50.764;6.120;2023-04-06T14:34:19;7.90;89.60
79049;DHT22;68680;50.764;6.120;2023-04-06T14:36:45;7.80;90.00
79049;DHT22;68680;50.764;6.120;2023-04-06T14:39:10;7.90;90.30
79049;DHT22;68680;50.764;6.120;2023-04-06T14:41:36;7.90;88.80
79049;DHT22;68680;50.764;6.120;2023-04-06T14:44:03;7.90;89.30
79049;DHT22;68680;50.764;6.120;2023-04-06T14:46:29;7.90;90.10
79049;DHT22;68680;50.764;6.120;2023-04-06T14:48:54;7.90;90.40
79049;DHT22;68680;50.764;6.120;2023-04-06T14:51:20;8.00;90.70
79049;DHT22;68680;50.764;6.120;2023-04-06T14:53:46;8.00;89.80
79049;DHT22;68680;50.764;6.120;2023-04-06T14:56:11;8.10;89.80
79049;DHT22;68680;50.764;6.120;2023-04-06T14:58:37;8.10;88.10
79049;DHT22;68680;50.764;6.120;2023-04-06T15:01:04;8.10;89.30
79049;DHT22;68680;50.764;6.120;2023-04-06T15:03:29;8.20;89.50
79049;DHT22;68680;50.764;6.120;2023-04-06T15:05:55;8.20;88.80
79049;DHT22;68680;50.764;6.120;2023-04-06T15:08:22;8.30;88.10
79049;DHT22;68680;50.764;6.120;2023-04-06T15:10:48;8.30;86.00
79049;DHT22;68680;50.764;6.120;2023-04-06T15:13:15;8.30;85.70
79049;DHT22;68680;50.764;6.120;2023-04-06T15:15:40;8.30;83.40
79049;DHT22;68680;50.764;6.120;2023-04-06T15:18:07;8.30;85.00
79049;DHT22;68680;50.764;6.120;2023-04-06T15:20:33;8.30;83.90
79049;DHT22;68680;50.764;6.120;2023-04-06T15:23:00;8.30;83.80
79049;DHT22;68680;50.764;6.120;2023-04-06T15:25:26;8.20;84.80
79049;DHT22;68680;50.764;6.120;2023-04-06T15:27:52;8.20;84.90
79049;DHT22;68680;50.764;6.120;2023-04-06T15:30:18;8.10;85.80
79049;DHT22;68680;50.764;6.120;2023-04-06T15:32:51;8.00;87.10
79049;DHT22;68680;50.764;6.120;2023-04-06T15:35:19;8.00;87.60